Chemroad Wing — 3EAB8 — position and weather

sailwx.info

Track history (hours):
 
Tides and Currents Weather Stations Pressure Air Temp Water Temp Dewpoint Dewpoint Depression Visibility Wind Speed Wind Dir Waves Ship Positions

Chemroad Wing

Last reported at 2015-Jul-29 07:12 UTC. Time now 2015-Jul-30 00:07 UTC.
Position N 36°27' W 002°10'.

Length 170 m; draft 10 m.

Type: Ship (hazmat cat B). MMSI: 357740000.

Date/timePositionNaut miles runAvg speedWind from/ knotsBaromVisibWave heightAir tempDewpointWater temp
2015-Jul-29 07:12N 36°27' W 002°10'1115.6
2015-Jul-29 06:28N 36°33' W 001°58'1915.1
2015-Jul-29 05:11N 36°44' W 001°38'1215.2
2015-Jul-29 04:25N 36°51' W 001°26'1315.2
2015-Jul-29 03:33N 36°58' W 001°13'1515.3
2015-Jul-29 02:33N 37°08' W 000°57'1515.3
2015-Jul-29 01:33N 37°16' W 000°42'1515.0
2015-Jul-29 00:33N 37°25' W 000°26'1515.2
2015-Jul-28 23:33N 37°35' W 000°11'1615.3
2015-Jul-28 22:30N 37°49' W 000°01'1515.4
2015-Jul-28 21:33N 38°01' E 000°08'1515.2
2015-Jul-28 20:33N 38°14' E 000°18'1515.1
2015-Jul-28 19:33N 38°27' E 000°27'1614.7
2015-Jul-28 18:26N 38°41' E 000°38'1414.2
2015-Jul-28 17:25N 38°56' E 000°42'123 3.4
2015-Jul-27 05:33N 40°52' E 001°34'6 5.9
2015-Jul-27 04:28N 40°48' E 001°41'14 7.1
2015-Jul-27 02:33N 40°60' E 001°50'1614.5
2015-Jul-27 01:27N 41°03' E 002°10'1815.2
2015-Jul-27 00:17N 41°10' E 002°32'9114.7
2015-Jul-26 18:05N 41°50' E 004°22'713.9
2015-Jul-26 17:33N 41°53' E 004°30'4214.0
2015-Jul-26 14:33N 42°15' E 005°18'1614.1
2015-Jul-26 13:23N 42°24' E 005°37'5914.3
2015-Jul-26 09:16N 42°53' E 006°47'1014.4
2015-Jul-26 08:33N 42°59' E 006°59'1514.5
2015-Jul-26 07:33N 43°06' E 007°16'7715.0
2015-Jul-26 02:26N 44°01' E 008°31'1315.1
2015-Jul-26 01:33N 44°12' E 008°41'1414.3
2015-Jul-26 00:33N 44°25' E 008°48'1 0.9
2015-Jul-25 23:31N 44°25' E 008°50'0 0.0
2015-Jul-25 22:30N 44°25' E 008°50'0 0.0
2015-Jul-25 21:33N 44°25' E 008°50'0 0.0
2015-Jul-25 20:34N 44°25' E 008°50'0 0.0
2015-Jul-25 19:33N 44°25' E 008°50'0 0.0
2015-Jul-25 18:33N 44°25' E 008°50'0 0.0
2015-Jul-25 17:34N 44°25' E 008°50'0 0.0
2015-Jul-25 16:34N 44°25' E 008°50'0 0.0
2015-Jul-25 15:34N 44°25' E 008°50'0 0.0
2015-Jul-25 14:24N 44°25' E 008°50'0 0.0
2015-Jul-25 13:28N 44°25' E 008°50'2 2.5
2015-Jul-25 12:33N 44°24' E 008°48'9 9.1
2015-Jul-25 11:34N 44°15' E 008°52'1413.8
2015-Jul-25 10:33N 44°03' E 009°02'2613.3
2015-Jul-25 08:33N 43°41' E 009°21'1313.0
2015-Jul-25 07:33N 43°29' E 009°30'1313.2
2015-Jul-25 06:33N 43°17' E 009°35'1413.5
2015-Jul-25 05:33N 43°03' E 009°39'33814.5
2015-Jul-24 06:13N 39°11' E 015°06'1014.5
2015-Jul-24 05:33N 39°04' E 015°15'1413.9
2015-Jul-24 04:32N 38°54' E 015°26'1414.6
2015-Jul-24 03:33N 38°40' E 015°32'1514.6
2015-Jul-24 02:34N 38°26' E 015°39'1211.9
2015-Jul-24 01:33N 38°15' E 015°39'10 9.8
2015-Jul-24 00:33N 38°05' E 015°36'10 9.6
2015-Jul-23 23:34N 37°55' E 015°37'1514.6
2015-Jul-23 22:32N 37°48' E 015°54'1515.0
2015-Jul-23 21:33N 37°41' E 016°10'72214.4
2015-Jul-21 19:33N 32°30' E 029°27'2114.3
2015-Jul-21 18:06N 32°25' E 029°50'814.0
2015-Jul-21 17:31N 32°23' E 029°60'1313.8
2015-Jul-21 16:33N 32°19' E 030°15'1413.6
2015-Jul-21 15:32N 32°16' E 030°31'1313.7
2015-Jul-21 14:33N 32°12' E 030°46'3014.1
2015-Jul-21 12:27N 32°04' E 031°20'2913.8
2015-Jul-21 10:21N 31°50' E 031°50'4511.8
2015-Jul-21 06:33N 31°14' E 032°21'82 2.6
2015-Jul-19 22:32N 29°53' E 032°28'0 0.0
2015-Jul-19 21:29N 29°53' E 032°28'  
Track history (hours):
 
Tides and Currents Weather Stations Pressure Air Temp Water Temp Dewpoint Dewpoint Depression Visibility Wind Speed Wind Dir Waves Ship Positions

Chemroad Wing

Last reported at 2015-Jul-29 07:12 UTC. Time now 2015-Jul-30 00:07 UTC.
Position N 36°27' W 002°10'.

Length 170 m; draft 10 m.

Type: Ship (hazmat cat B). MMSI: 357740000.

Date/timePositionNaut miles runAvg speedWind from/ knotsBaromVisibWave heightAir tempDewpointWater temp
2015-Jul-29 07:12N 36°27' W 002°10'1115.6
2015-Jul-29 06:28N 36°33' W 001°58'1915.1
2015-Jul-29 05:11N 36°44' W 001°38'1215.2
2015-Jul-29 04:25N 36°51' W 001°26'1315.2
2015-Jul-29 03:33N 36°58' W 001°13'1515.3
2015-Jul-29 02:33N 37°08' W 000°57'1515.3
2015-Jul-29 01:33N 37°16' W 000°42'1515.0
2015-Jul-29 00:33N 37°25' W 000°26'1515.2
2015-Jul-28 23:33N 37°35' W 000°11'1615.3
2015-Jul-28 22:30N 37°49' W 000°01'1515.4
2015-Jul-28 21:33N 38°01' E 000°08'1515.2
2015-Jul-28 20:33N 38°14' E 000°18'1515.1
2015-Jul-28 19:33N 38°27' E 000°27'1614.7
2015-Jul-28 18:26N 38°41' E 000°38'1414.2
2015-Jul-28 17:25N 38°56' E 000°42'123 3.4
2015-Jul-27 05:33N 40°52' E 001°34'6 5.9
2015-Jul-27 04:28N 40°48' E 001°41'14 7.1
2015-Jul-27 02:33N 40°60' E 001°50'1614.5
2015-Jul-27 01:27N 41°03' E 002°10'1815.2
2015-Jul-27 00:17N 41°10' E 002°32'9114.7
2015-Jul-26 18:05N 41°50' E 004°22'713.9
2015-Jul-26 17:33N 41°53' E 004°30'4214.0
2015-Jul-26 14:33N 42°15' E 005°18'1614.1
2015-Jul-26 13:23N 42°24' E 005°37'5914.3
2015-Jul-26 09:16N 42°53' E 006°47'1014.4
2015-Jul-26 08:33N 42°59' E 006°59'1514.5
2015-Jul-26 07:33N 43°06' E 007°16'7715.0
2015-Jul-26 02:26N 44°01' E 008°31'1315.1
2015-Jul-26 01:33N 44°12' E 008°41'1414.3
2015-Jul-26 00:33N 44°25' E 008°48'1 0.9
2015-Jul-25 23:31N 44°25' E 008°50'0 0.0
2015-Jul-25 22:30N 44°25' E 008°50'0 0.0
2015-Jul-25 21:33N 44°25' E 008°50'0 0.0
2015-Jul-25 20:34N 44°25' E 008°50'0 0.0
2015-Jul-25 19:33N 44°25' E 008°50'0 0.0
2015-Jul-25 18:33N 44°25' E 008°50'0 0.0
2015-Jul-25 17:34N 44°25' E 008°50'0 0.0
2015-Jul-25 16:34N 44°25' E 008°50'0 0.0
2015-Jul-25 15:34N 44°25' E 008°50'0 0.0
2015-Jul-25 14:24N 44°25' E 008°50'0 0.0
2015-Jul-25 13:28N 44°25' E 008°50'2 2.5
2015-Jul-25 12:33N 44°24' E 008°48'9 9.1
2015-Jul-25 11:34N 44°15' E 008°52'1413.8
2015-Jul-25 10:33N 44°03' E 009°02'2613.3
2015-Jul-25 08:33N 43°41' E 009°21'1313.0
2015-Jul-25 07:33N 43°29' E 009°30'1313.2
2015-Jul-25 06:33N 43°17' E 009°35'1413.5
2015-Jul-25 05:33N 43°03' E 009°39'33814.5
2015-Jul-24 06:13N 39°11' E 015°06'1014.5
2015-Jul-24 05:33N 39°04' E 015°15'1413.9
2015-Jul-24 04:32N 38°54' E 015°26'1414.6
2015-Jul-24 03:33N 38°40' E 015°32'1514.6
2015-Jul-24 02:34N 38°26' E 015°39'1211.9
2015-Jul-24 01:33N 38°15' E 015°39'10 9.8
2015-Jul-24 00:33N 38°05' E 015°36'10 9.6
2015-Jul-23 23:34N 37°55' E 015°37'1514.6
2015-Jul-23 22:32N 37°48' E 015°54'1515.0
2015-Jul-23 21:33N 37°41' E 016°10'72214.4
2015-Jul-21 19:33N 32°30' E 029°27'2114.3
2015-Jul-21 18:06N 32°25' E 029°50'814.0
2015-Jul-21 17:31N 32°23' E 029°60'1313.8
2015-Jul-21 16:33N 32°19' E 030°15'1413.6
2015-Jul-21 15:32N 32°16' E 030°31'1313.7
2015-Jul-21 14:33N 32°12' E 030°46'3014.1
2015-Jul-21 12:27N 32°04' E 031°20'2913.8
2015-Jul-21 10:21N 31°50' E 031°50'4511.8
2015-Jul-21 06:33N 31°14' E 032°21'82 2.6
2015-Jul-19 22:32N 29°53' E 032°28'0 0.0
2015-Jul-19 21:29N 29°53' E 032°28'  

Dump ship's entire track history